createdAt,value
2022-12-16T00:00:20.598Z,58.10
2022-12-16T00:01:20.332Z,57.50
2022-12-16T00:02:20.346Z,58.20
2022-12-16T00:03:20.422Z,56.40
2022-12-16T00:04:20.315Z,57.30
2022-12-16T00:05:20.279Z,58.40
2022-12-16T00:06:20.277Z,61.10
2022-12-16T00:07:20.296Z,61.90
2022-12-16T00:08:20.251Z,56.80
2022-12-16T00:09:20.273Z,55.40
2022-12-16T00:10:20.227Z,59.10
2022-12-16T00:11:20.227Z,62.10
2022-12-16T00:12:20.208Z,58.40
2022-12-16T00:13:20.197Z,63.10
2022-12-16T00:14:20.204Z,62.20
2022-12-16T00:15:20.176Z,61.00
2022-12-16T00:16:20.318Z,61.00
2022-12-16T00:17:20.156Z,56.60
2022-12-16T00:18:20.369Z,57.60
2022-12-16T00:19:20.153Z,59.20
2022-12-16T00:20:20.118Z,55.70
2022-12-16T00:21:20.130Z,55.90
2022-12-16T00:22:20.094Z,56.10
2022-12-16T00:23:20.090Z,59.90
2022-12-16T00:24:20.116Z,60.20
2022-12-16T00:25:20.066Z,62.00
2022-12-16T00:26:20.070Z,60.90
2022-12-16T00:27:20.046Z,63.30
2022-12-16T00:28:20.030Z,60.90
2022-12-16T00:29:20.055Z,61.10
2022-12-16T00:30:20.016Z,63.70
2022-12-16T00:31:20.079Z,65.20
2022-12-16T00:32:19.986Z,62.70
2022-12-16T00:33:19.989Z,58.40
2022-12-16T00:34:19.969Z,60.00
2022-12-16T00:35:19.979Z,58.70
2022-12-16T00:36:19.964Z,57.00
2022-12-16T00:37:19.986Z,59.00
2022-12-16T00:38:19.920Z,60.10
2022-12-16T00:39:19.913Z,60.30
2022-12-16T00:40:19.899Z,63.40
2022-12-16T00:41:19.913Z,64.90
2022-12-16T00:42:19.948Z,65.50
2022-12-16T00:43:19.872Z,63.30
2022-12-16T00:44:19.854Z,63.70
2022-12-16T00:45:19.849Z,65.70
2022-12-16T00:46:19.983Z,64.60
2022-12-16T00:47:19.832Z,64.50
2022-12-16T00:48:19.810Z,65.80
2022-12-16T00:49:19.805Z,64.20
2022-12-16T00:50:19.790Z,65.80
2022-12-16T00:51:19.820Z,63.20
2022-12-16T00:52:19.767Z,65.00
2022-12-16T00:53:19.760Z,63.80
2022-12-16T00:54:19.769Z,61.40
2022-12-16T00:55:19.741Z,64.00
2022-12-16T00:56:19.723Z,65.20
2022-12-16T00:57:19.761Z,66.40
2022-12-16T00:58:19.708Z,67.10
2022-12-16T00:59:19.707Z,66.20
2022-12-16T01:00:19.684Z,66.10
2022-12-16T01:01:19.880Z,69.20
2022-12-16T01:02:19.860Z,69.20
2022-12-16T01:03:22.014Z,68.00
2022-12-16T01:04:19.649Z,65.90
2022-12-16T01:05:19.631Z,64.20
2022-12-16T01:06:19.640Z,63.30
2022-12-16T01:07:19.630Z,63.70
2022-12-16T01:08:19.665Z,63.80
2022-12-16T01:09:19.635Z,65.70
2022-12-16T01:10:19.595Z,65.70
2022-12-16T01:11:19.563Z,65.50
2022-12-16T01:12:19.559Z,67.00
2022-12-16T01:13:19.543Z,63.80
2022-12-16T01:14:19.569Z,62.50
2022-12-16T01:15:19.521Z,64.40
2022-12-16T01:16:19.695Z,66.30
2022-12-16T01:17:19.501Z,65.20
2022-12-16T01:18:19.492Z,66.00
2022-12-16T01:19:19.500Z,66.70
2022-12-16T01:20:19.551Z,65.80
2022-12-16T01:21:19.455Z,68.20
2022-12-16T01:22:19.452Z,69.40
2022-12-16T01:23:19.441Z,69.70
2022-12-16T01:24:19.427Z,67.10
2022-12-16T01:25:19.424Z,69.30
2022-12-16T01:26:19.432Z,67.60
2022-12-16T01:27:19.396Z,69.20
2022-12-16T01:28:19.383Z,69.40
2022-12-16T01:29:19.369Z,66.70
2022-12-16T01:30:19.366Z,65.90
2022-12-16T01:31:19.486Z,63.30
2022-12-16T01:32:19.352Z,67.00
2022-12-16T01:33:19.325Z,66.20
2022-12-16T01:34:19.320Z,65.30
2022-12-16T01:35:51.635Z,64.30
2022-12-16T01:36:19.324Z,65.00
2022-12-16T01:37:19.288Z,65.00
2022-12-16T01:38:19.280Z,64.40
2022-12-16T01:39:19.262Z,66.40
2022-12-16T01:40:19.255Z,64.10
2022-12-16T01:41:19.285Z,65.10
2022-12-16T01:42:19.265Z,64.00
2022-12-16T01:43:19.232Z,64.20
2022-12-16T01:44:19.281Z,65.10
2022-12-16T01:45:19.222Z,67.90
2022-12-16T01:46:19.313Z,66.30
2022-12-16T01:47:19.191Z,66.90
2022-12-16T01:48:19.192Z,63.50
2022-12-16T01:49:19.151Z,65.20
2022-12-16T01:50:19.171Z,64.20
2022-12-16T01:51:19.186Z,64.90
2022-12-16T01:52:19.147Z,65.80
2022-12-16T01:53:19.107Z,64.70
2022-12-16T01:54:19.103Z,65.40
2022-12-16T01:55:19.086Z,66.90
2022-12-16T01:56:19.110Z,65.80
2022-12-16T01:57:19.090Z,65.70
2022-12-16T01:58:19.076Z,66.00
2022-12-16T01:59:19.068Z,68.50
2022-12-16T02:00:19.037Z,65.70
2022-12-16T02:01:19.208Z,64.10
2022-12-16T02:02:19.150Z,64.80
2022-12-16T02:03:19.096Z,63.80
2022-12-16T02:04:18.996Z,61.40
2022-12-16T02:05:18.993Z,64.10
2022-12-16T02:06:18.974Z,66.80
2022-12-16T02:07:18.957Z,65.20
2022-12-16T02:08:19.005Z,65.90
2022-12-16T02:09:18.940Z,65.00
2022-12-16T02:10:18.955Z,63.70
2022-12-16T02:11:18.928Z,63.70
2022-12-16T02:12:18.916Z,63.80
2022-12-16T02:13:18.933Z,65.20
2022-12-16T02:14:18.916Z,64.70
2022-12-16T02:15:18.909Z,63.40
2022-12-16T02:16:18.928Z,63.60
2022-12-16T02:17:18.913Z,65.10
2022-12-16T02:18:18.840Z,61.50
2022-12-16T02:19:18.832Z,62.60
2022-12-16T02:20:18.851Z,62.20
2022-12-16T02:21:18.856Z,61.20
2022-12-16T02:22:18.809Z,63.50
2022-12-16T02:23:18.790Z,65.30
2022-12-16T02:24:18.772Z,64.20
2022-12-16T02:25:18.813Z,64.90
2022-12-16T02:26:18.774Z,64.10
2022-12-16T02:27:18.768Z,63.50
2022-12-16T02:28:18.726Z,63.70
2022-12-16T02:29:18.730Z,63.10
2022-12-16T02:30:18.709Z,63.60
2022-12-16T02:31:18.787Z,63.70
2022-12-16T02:32:18.685Z,61.50
2022-12-16T02:33:18.707Z,61.80
2022-12-16T02:34:18.669Z,60.40
2022-12-16T02:35:18.660Z,62.20
2022-12-16T02:36:18.641Z,60.60
2022-12-16T02:37:18.676Z,61.80
2022-12-16T02:38:18.639Z,62.50
2022-12-16T02:39:18.614Z,65.10
2022-12-16T02:40:18.615Z,63.00
2022-12-16T02:41:18.610Z,64.60
2022-12-16T02:42:18.598Z,62.00
2022-12-16T02:43:18.571Z,63.10
2022-12-16T02:44:18.620Z,64.40
2022-12-16T02:45:18.552Z,62.90
2022-12-16T02:46:18.633Z,63.60
2022-12-16T02:47:18.527Z,65.10
2022-12-16T02:48:18.532Z,66.80
2022-12-16T02:49:18.505Z,62.90
2022-12-16T02:50:18.496Z,64.30
2022-12-16T02:51:18.502Z,62.10
2022-12-16T02:52:18.466Z,63.50
2022-12-16T02:53:18.489Z,62.70
2022-12-16T02:54:18.450Z,62.80
2022-12-16T02:55:18.465Z,62.40
2022-12-16T02:56:18.421Z,62.10
2022-12-16T02:57:18.411Z,62.40
2022-12-16T02:58:18.440Z,63.50
2022-12-16T02:59:18.391Z,64.40
2022-12-16T03:00:18.380Z,64.60
2022-12-16T03:01:18.549Z,64.60
2022-12-16T03:02:18.538Z,65.00
2022-12-16T03:03:18.482Z,66.50
2022-12-16T03:04:18.333Z,65.50
2022-12-16T03:05:18.323Z,65.40
2022-12-16T03:06:18.309Z,61.80
2022-12-16T03:07:18.301Z,64.20
2022-12-16T03:08:18.307Z,65.30
2022-12-16T03:09:18.277Z,60.70
2022-12-16T03:10:18.264Z,60.90
2022-12-16T03:11:18.258Z,62.70
2022-12-16T03:12:18.258Z,63.90
2022-12-16T03:13:18.295Z,62.70
2022-12-16T03:14:18.228Z,62.50
2022-12-16T03:15:18.223Z,61.80
2022-12-16T03:16:18.228Z,62.30
2022-12-16T03:17:18.199Z,60.10
2022-12-16T03:18:18.218Z,59.50
2022-12-16T03:19:18.177Z,61.40
2022-12-16T03:20:18.155Z,59.50
2022-12-16T03:21:18.151Z,58.00
2022-12-16T03:22:18.132Z,60.00
2022-12-16T03:23:18.167Z,59.00
2022-12-16T03:24:18.111Z,61.60
2022-12-16T03:25:18.118Z,60.40
2022-12-16T03:26:18.097Z,61.30
2022-12-16T03:27:18.088Z,62.10
2022-12-16T03:28:18.085Z,61.70
2022-12-16T03:29:18.058Z,60.40
2022-12-16T03:30:18.050Z,60.70
2022-12-16T03:31:18.109Z,59.70
2022-12-16T03:32:18.041Z,60.20
2022-12-16T03:33:18.036Z,60.70
2022-12-16T03:34:17.999Z,62.20
2022-12-16T03:35:17.996Z,59.40
2022-12-16T03:36:17.981Z,58.70
2022-12-16T03:37:17.981Z,60.10
2022-12-16T03:38:18.004Z,57.10
2022-12-16T03:39:17.971Z,59.20
2022-12-16T03:40:17.939Z,59.70
2022-12-16T03:41:17.929Z,60.70
2022-12-16T03:42:17.935Z,60.50
2022-12-16T03:43:17.983Z,61.60
2022-12-16T03:44:17.912Z,61.90
2022-12-16T03:45:17.887Z,59.80
2022-12-16T03:46:17.980Z,62.00
2022-12-16T03:47:23.307Z,61.10
2022-12-16T03:48:17.882Z,66.10
2022-12-16T03:49:17.843Z,65.80
2022-12-16T03:50:17.823Z,65.20
2022-12-16T03:51:17.863Z,63.90
2022-12-16T03:52:17.799Z,60.70
2022-12-16T03:53:17.819Z,63.30
2022-12-16T03:54:17.777Z,61.20
2022-12-16T03:55:17.780Z,59.20
2022-12-16T03:56:17.760Z,57.50
2022-12-16T03:57:17.751Z,57.20
2022-12-16T03:58:17.758Z,57.60
2022-12-16T03:59:17.729Z,60.20
2022-12-16T04:00:17.719Z,58.30
2022-12-16T04:01:17.987Z,56.60
2022-12-16T04:02:17.904Z,59.40
2022-12-16T04:03:17.872Z,58.30
2022-12-16T04:04:17.671Z,58.90
2022-12-16T04:05:17.662Z,62.40
2022-12-16T04:06:17.647Z,60.20
2022-12-16T04:07:17.639Z,59.70
2022-12-16T04:08:17.648Z,58.00
2022-12-16T04:09:17.619Z,58.00
2022-12-16T04:10:17.605Z,57.90
2022-12-16T04:11:17.591Z,60.60
2022-12-16T04:12:17.585Z,62.10
2022-12-16T04:13:17.594Z,59.60
2022-12-16T04:14:17.569Z,58.80
2022-12-16T04:15:17.546Z,58.50
2022-12-16T04:16:17.627Z,57.20
2022-12-16T04:17:17.527Z,62.70
2022-12-16T04:18:17.542Z,63.40
2022-12-16T04:19:17.503Z,59.80
2022-12-16T04:20:17.497Z,62.40
2022-12-16T04:21:17.485Z,58.20
2022-12-16T04:22:17.478Z,59.00
2022-12-16T04:23:17.484Z,60.40
2022-12-16T04:24:17.457Z,60.50
2022-12-16T04:25:17.444Z,56.40
2022-12-16T04:26:17.442Z,57.80
2022-12-16T04:27:17.419Z,55.90
2022-12-16T04:28:17.433Z,58.10
2022-12-16T04:29:17.395Z,59.30
2022-12-16T04:30:17.390Z,56.20
2022-12-16T04:31:17.437Z,58.10
2022-12-16T04:32:17.367Z,56.80
2022-12-16T04:33:17.377Z,56.30
2022-12-16T04:34:17.343Z,57.60
2022-12-16T04:35:17.331Z,57.90
2022-12-16T04:36:17.321Z,60.10
2022-12-16T04:37:17.310Z,58.40
2022-12-16T04:38:17.321Z,57.90
2022-12-16T04:39:17.288Z,56.80
2022-12-16T04:40:17.281Z,56.60
2022-12-16T04:41:17.271Z,55.10
2022-12-16T04:42:17.260Z,56.40
2022-12-16T04:43:17.275Z,58.00
2022-12-16T04:44:17.240Z,54.10
2022-12-16T04:45:17.220Z,54.00
2022-12-16T04:46:17.253Z,55.60
2022-12-16T04:47:17.200Z,55.70
2022-12-16T04:48:17.239Z,56.60
2022-12-16T04:49:17.178Z,56.50
2022-12-16T04:50:17.170Z,54.70
2022-12-16T04:51:17.160Z,53.90
2022-12-16T04:52:17.149Z,54.90
2022-12-16T04:53:17.423Z,57.10
2022-12-16T04:54:17.128Z,52.70
2022-12-16T04:55:17.114Z,52.70
2022-12-16T04:56:17.108Z,55.70
2022-12-16T04:57:17.089Z,53.50
2022-12-16T04:58:17.111Z,53.10
2022-12-16T04:59:17.074Z,57.70
2022-12-16T05:00:17.064Z,55.30
2022-12-16T05:01:17.098Z,55.40
2022-12-16T05:02:17.170Z,56.00
2022-12-16T05:03:17.070Z,56.20
2022-12-16T05:04:17.050Z,55.90
2022-12-16T05:05:17.008Z,54.40
2022-12-16T05:06:17.098Z,56.50
2022-12-16T05:07:16.988Z,56.10
2022-12-16T05:08:16.998Z,55.50
2022-12-16T05:09:16.960Z,53.80
2022-12-16T05:10:16.950Z,53.60
2022-12-16T05:11:16.944Z,60.30
2022-12-16T05:12:16.930Z,57.80
2022-12-16T05:13:16.953Z,56.60
2022-12-16T05:14:16.917Z,54.20
2022-12-16T05:15:16.902Z,56.30
2022-12-16T05:16:16.965Z,56.30
2022-12-16T05:17:16.877Z,54.90
2022-12-16T05:18:16.886Z,57.20
2022-12-16T05:19:16.856Z,56.40
2022-12-16T05:20:16.846Z,54.90
2022-12-16T05:21:16.835Z,52.70
2022-12-16T05:22:16.822Z,54.10
2022-12-16T05:23:16.841Z,54.00
2022-12-16T05:24:16.804Z,54.60
2022-12-16T05:25:16.793Z,54.20
2022-12-16T05:26:16.776Z,55.60
2022-12-16T05:27:16.769Z,55.00
2022-12-16T05:28:16.787Z,55.70
2022-12-16T05:29:16.747Z,53.40
2022-12-16T05:30:16.735Z,54.70
2022-12-16T05:31:16.773Z,54.90
2022-12-16T05:32:16.714Z,56.80
2022-12-16T05:33:16.728Z,54.40
2022-12-16T05:34:16.688Z,52.80
2022-12-16T05:35:16.684Z,53.40
2022-12-16T05:36:16.669Z,52.60
2022-12-16T05:37:16.661Z,52.50
2022-12-16T05:38:16.672Z,55.00
2022-12-16T05:39:16.647Z,52.20
2022-12-16T05:40:16.626Z,53.00
2022-12-16T05:41:16.622Z,55.70
2022-12-16T05:42:16.604Z,59.50
2022-12-16T05:43:17.166Z,57.20
2022-12-16T05:44:16.588Z,55.40
2022-12-16T05:45:16.576Z,53.40
2022-12-16T05:46:16.747Z,54.50
2022-12-16T05:47:16.612Z,53.10
2022-12-16T05:48:16.557Z,53.40
2022-12-16T05:49:16.530Z,53.80
2022-12-16T05:50:16.517Z,53.10
2022-12-16T05:51:16.508Z,54.00
2022-12-16T05:52:16.496Z,54.20
2022-12-16T05:53:16.510Z,53.40
2022-12-16T05:54:16.473Z,53.50
2022-12-16T05:55:16.468Z,53.50
2022-12-16T05:56:16.448Z,55.00
2022-12-16T05:57:16.454Z,57.20
2022-12-16T05:58:16.447Z,59.80
2022-12-16T05:59:16.423Z,55.50
2022-12-16T06:00:16.404Z,55.30
2022-12-16T06:01:16.399Z,52.90
2022-12-16T06:02:16.513Z,54.40
2022-12-16T06:03:16.584Z,53.60
2022-12-16T06:04:18.039Z,53.80
2022-12-16T06:05:16.355Z,53.80
2022-12-16T06:06:16.344Z,53.20
2022-12-16T06:07:16.340Z,52.10
2022-12-16T06:08:16.341Z,53.60
2022-12-16T06:09:16.327Z,53.00
2022-12-16T06:10:16.301Z,52.00
2022-12-16T06:11:16.284Z,52.80
2022-12-16T06:12:16.279Z,52.20
2022-12-16T06:13:16.288Z,51.70
2022-12-16T06:14:16.260Z,51.20
2022-12-16T06:15:16.245Z,51.50
2022-12-16T06:16:16.267Z,55.30
2022-12-16T06:17:16.221Z,53.80
2022-12-16T06:18:16.241Z,52.80
2022-12-16T06:19:16.199Z,52.90
2022-12-16T06:20:16.200Z,51.90
2022-12-16T06:21:16.177Z,51.70
2022-12-16T06:22:16.184Z,50.80
2022-12-16T06:23:18.818Z,50.90
2022-12-16T06:24:16.153Z,52.00
2022-12-16T06:25:16.130Z,49.60
2022-12-16T06:26:16.126Z,51.20
2022-12-16T06:27:16.112Z,50.80
2022-12-16T06:28:16.127Z,51.90
2022-12-16T06:29:16.089Z,55.20
2022-12-16T06:30:16.106Z,51.30
2022-12-16T06:31:16.104Z,50.30
2022-12-16T06:32:16.064Z,52.50
2022-12-16T06:33:16.073Z,52.80
2022-12-16T06:34:16.039Z,52.90
2022-12-16T06:35:16.033Z,51.80
2022-12-16T06:36:16.016Z,53.00
2022-12-16T06:37:16.005Z,53.60
2022-12-16T06:38:16.028Z,53.40
2022-12-16T06:39:15.979Z,52.20
2022-12-16T06:40:15.974Z,54.30
2022-12-16T06:41:15.960Z,53.10
2022-12-16T06:42:15.954Z,54.40
2022-12-16T06:43:16.084Z,53.40
2022-12-16T06:44:15.929Z,52.00
2022-12-16T06:45:15.936Z,51.80
2022-12-16T06:46:15.984Z,50.10
2022-12-16T06:47:15.893Z,53.50
2022-12-16T06:48:15.936Z,59.40
2022-12-16T06:49:15.871Z,55.60
2022-12-16T06:50:15.865Z,53.90
2022-12-16T06:51:15.866Z,51.90
2022-12-16T06:52:15.841Z,52.80
2022-12-16T06:53:15.856Z,50.20
2022-12-16T06:54:15.832Z,50.60
2022-12-16T06:55:15.806Z,50.50
2022-12-16T06:56:15.801Z,51.80
2022-12-16T06:57:15.784Z,53.20
2022-12-16T06:58:15.798Z,52.10
2022-12-16T06:59:15.760Z,51.40
2022-12-16T07:00:15.756Z,51.40
2022-12-16T07:01:15.813Z,51.10
2022-12-16T07:02:15.822Z,52.30
2022-12-16T07:03:15.765Z,52.00
2022-12-16T07:04:15.719Z,52.80
2022-12-16T07:05:15.706Z,53.10
2022-12-16T07:06:15.691Z,53.20
2022-12-16T07:07:15.677Z,53.60
2022-12-16T07:08:15.705Z,54.60
2022-12-16T07:09:15.653Z,54.70
2022-12-16T07:10:15.650Z,56.40
2022-12-16T07:11:17.300Z,58.80
2022-12-16T07:12:15.625Z,58.50
2022-12-16T07:13:15.639Z,61.30
2022-12-16T07:14:15.603Z,65.70
2022-12-16T07:15:15.596Z,66.60
2022-12-16T07:16:15.606Z,66.20
2022-12-16T07:17:17.443Z,66.90
2022-12-16T07:18:15.593Z,70.30
2022-12-16T07:19:15.554Z,69.70
2022-12-16T07:20:15.544Z,70.50
2022-12-16T07:21:15.530Z,71.00
2022-12-16T07:22:15.520Z,74.70
2022-12-16T07:23:19.632Z,74.70
2022-12-16T07:24:15.522Z,69.70
2022-12-16T07:25:15.479Z,82.50
2022-12-16T07:26:15.478Z,83.90
2022-12-16T07:27:15.459Z,72.50
2022-12-16T07:28:15.968Z,79.50
2022-12-16T07:29:15.461Z,74.40
2022-12-16T07:30:15.434Z,74.90
2022-12-16T07:31:15.459Z,78.90
2022-12-16T07:32:15.411Z,80.10
2022-12-16T07:33:15.392Z,101.10
2022-12-16T07:34:15.392Z,102.50
2022-12-16T07:35:15.404Z,96.30
2022-12-16T07:36:15.369Z,79.40
2022-12-16T07:37:15.358Z,87.70
2022-12-16T07:38:15.346Z,90.20
2022-12-16T07:39:15.328Z,80.30
2022-12-16T07:40:15.321Z,80.10
2022-12-16T07:41:15.331Z,77.80
2022-12-16T07:42:15.303Z,79.00
2022-12-16T07:43:15.287Z,78.50
2022-12-16T07:44:15.282Z,81.00
2022-12-16T07:45:15.269Z,81.70
2022-12-16T07:46:15.367Z,82.00
2022-12-16T07:47:15.241Z,86.50
2022-12-16T07:48:15.239Z,90.40
2022-12-16T07:49:15.218Z,86.10
2022-12-16T07:50:15.215Z,86.70
2022-12-16T07:51:15.208Z,87.40
2022-12-16T07:52:15.223Z,84.20
2022-12-16T07:53:15.177Z,76.90
2022-12-16T07:54:15.177Z,83.60
2022-12-16T07:55:15.153Z,82.00
2022-12-16T07:56:15.147Z,78.00
2022-12-16T07:57:15.132Z,81.30
2022-12-16T07:58:15.148Z,89.40
2022-12-16T07:59:15.114Z,77.20
2022-12-16T08:00:15.138Z,81.30
2022-12-16T08:01:15.149Z,83.80
2022-12-16T08:02:15.184Z,78.60
2022-12-16T08:03:15.152Z,77.10
2022-12-16T08:04:15.073Z,84.20
2022-12-16T08:05:15.068Z,78.40
2022-12-16T08:06:15.044Z,76.30
2022-12-16T08:07:15.025Z,73.80
2022-12-16T08:08:15.019Z,75.50
2022-12-16T08:09:15.040Z,76.00
2022-12-16T08:10:15.033Z,70.00
2022-12-16T08:11:15.009Z,72.70
2022-12-16T08:12:14.971Z,72.30
2022-12-16T08:13:14.996Z,67.60
2022-12-16T08:14:14.948Z,69.80
2022-12-16T08:15:14.964Z,72.70
2022-12-16T08:16:14.974Z,70.90
2022-12-16T08:17:14.969Z,70.50
2022-12-16T08:18:14.933Z,69.90
2022-12-16T08:19:15.058Z,68.60
2022-12-16T08:20:14.883Z,68.50
2022-12-16T08:21:14.912Z,69.10
2022-12-16T08:22:14.863Z,68.70
2022-12-16T08:23:14.875Z,68.80
2022-12-16T08:24:14.837Z,69.10
2022-12-16T08:25:14.831Z,69.60
2022-12-16T08:26:14.835Z,69.20
2022-12-16T08:27:14.805Z,72.40
2022-12-16T08:28:14.887Z,70.50
2022-12-16T08:29:42.400Z,69.40
2022-12-16T08:30:14.777Z,68.80
2022-12-16T08:31:14.803Z,66.90
2022-12-16T08:32:14.752Z,70.00
2022-12-16T08:33:19.175Z,70.70
2022-12-16T08:34:14.743Z,70.60
2022-12-16T08:35:14.720Z,66.50
2022-12-16T08:36:14.702Z,71.20
2022-12-16T08:37:14.699Z,66.40
2022-12-16T08:38:14.705Z,65.40
2022-12-16T08:39:14.674Z,62.00
2022-12-16T08:41:14.658Z,65.60
2022-12-16T08:42:14.635Z,62.30
2022-12-16T08:43:14.675Z,62.60
2022-12-16T08:44:14.613Z,63.10
2022-12-16T08:45:14.608Z,61.90
2022-12-16T08:46:14.665Z,60.20
2022-12-16T08:47:14.587Z,56.80
2022-12-16T08:48:14.635Z,58.40
2022-12-16T08:50:14.550Z,76.50
2022-12-16T08:51:14.540Z,71.30
2022-12-16T08:52:14.530Z,66.60
2022-12-16T08:53:14.521Z,62.10
2022-12-16T08:54:14.511Z,62.30
2022-12-16T08:55:14.518Z,63.60
2022-12-16T08:56:14.510Z,61.00
2022-12-16T08:57:14.476Z,63.30
2022-12-16T08:58:14.687Z,63.20
2022-12-16T08:59:14.502Z,65.80
2022-12-16T09:00:14.637Z,63.70
2022-12-16T09:01:14.500Z,61.50
2022-12-16T09:02:14.531Z,61.60
2022-12-16T09:03:14.532Z,60.50
2022-12-16T09:04:14.443Z,57.80
2022-12-16T09:05:14.386Z,57.20
2022-12-16T09:06:14.399Z,55.40
2022-12-16T09:07:14.372Z,53.20
2022-12-16T09:08:14.349Z,55.20
2022-12-16T09:09:14.341Z,56.60
2022-12-16T09:10:14.331Z,60.10
2022-12-16T09:11:14.338Z,57.40
2022-12-16T09:12:14.313Z,77.70
2022-12-16T09:13:14.296Z,80.00
2022-12-16T09:14:14.287Z,68.70
2022-12-16T09:15:14.272Z,63.30
2022-12-16T09:16:17.808Z,61.90
2022-12-16T09:17:14.279Z,61.10
2022-12-16T09:18:14.243Z,60.20
2022-12-16T09:19:14.226Z,61.30
2022-12-16T09:20:14.220Z,63.30
2022-12-16T09:21:14.207Z,63.90
2022-12-16T09:22:14.223Z,64.00
2022-12-16T09:23:14.186Z,65.10
2022-12-16T09:24:14.179Z,67.40
2022-12-16T09:25:14.164Z,66.60
2022-12-16T09:26:14.232Z,69.90
2022-12-16T09:27:14.140Z,69.00
2022-12-16T09:28:14.169Z,65.80
2022-12-16T09:29:14.117Z,66.20
2022-12-16T09:30:14.123Z,68.00
2022-12-16T09:31:14.139Z,70.00
2022-12-16T09:32:14.089Z,68.40
2022-12-16T09:33:14.122Z,68.30
2022-12-16T09:34:14.131Z,67.50
2022-12-16T09:35:14.059Z,67.00
2022-12-16T09:36:14.051Z,68.00
2022-12-16T09:37:14.031Z,68.50
2022-12-16T09:38:14.022Z,67.20
2022-12-16T09:39:14.038Z,67.80
2022-12-16T09:40:14.006Z,66.70
2022-12-16T09:41:13.988Z,66.60
2022-12-16T09:42:13.978Z,66.50
2022-12-16T09:43:13.965Z,69.20
2022-12-16T09:44:13.986Z,65.80
2022-12-16T09:45:13.946Z,63.70
2022-12-16T09:46:14.003Z,66.30
2022-12-16T09:47:13.919Z,65.70
2022-12-16T09:48:13.912Z,68.10
2022-12-16T09:49:13.897Z,66.70
2022-12-16T09:50:13.924Z,66.20
2022-12-16T09:51:13.876Z,68.60
2022-12-16T09:52:18.337Z,64.20
2022-12-16T09:53:13.857Z,64.40
2022-12-16T09:54:13.851Z,62.60
2022-12-16T09:55:13.830Z,65.90
2022-12-16T09:56:13.859Z,66.70
2022-12-16T09:57:13.809Z,64.80
2022-12-16T09:58:13.826Z,63.80
2022-12-16T09:59:13.788Z,62.40
2022-12-16T10:00:13.784Z,64.30
2022-12-16T10:01:13.873Z,64.60
2022-12-16T10:02:14.247Z,63.10
2022-12-16T10:03:13.938Z,64.70
2022-12-16T10:04:13.801Z,62.70
2022-12-16T10:05:13.721Z,65.00
2022-12-16T10:06:13.737Z,62.70
2022-12-16T10:07:13.699Z,64.60
2022-12-16T10:08:18.818Z,62.40
2022-12-16T10:09:13.685Z,66.50
2022-12-16T10:10:13.665Z,63.30
2022-12-16T10:11:13.661Z,61.70
2022-12-16T10:12:13.649Z,61.20
2022-12-16T10:13:13.677Z,75.40
2022-12-16T10:14:17.835Z,63.00
2022-12-16T10:15:13.622Z,63.50
2022-12-16T10:16:13.752Z,62.50
2022-12-16T10:17:13.594Z,63.00
2022-12-16T10:18:13.607Z,63.10
2022-12-16T10:19:13.594Z,62.30
2022-12-16T10:20:13.561Z,63.40
2022-12-16T10:21:13.561Z,62.80
2022-12-16T10:22:13.566Z,64.00
2022-12-16T10:23:13.552Z,61.50
2022-12-16T10:24:13.516Z,63.00
2022-12-16T10:25:13.512Z,66.20
2022-12-16T10:26:13.496Z,65.20
2022-12-16T10:27:13.486Z,64.30
2022-12-16T10:28:13.491Z,64.20
2022-12-16T10:29:13.462Z,63.40
2022-12-16T10:30:13.449Z,66.90
2022-12-16T10:31:13.582Z,66.50
2022-12-16T10:32:13.423Z,65.70
2022-12-16T10:33:13.440Z,66.90
2022-12-16T10:34:13.404Z,64.00
2022-12-16T10:35:13.400Z,66.50
2022-12-16T10:36:13.380Z,68.20
2022-12-16T10:37:17.596Z,68.10
2022-12-16T10:38:13.387Z,65.50
2022-12-16T10:39:13.362Z,63.70
2022-12-16T10:40:13.341Z,66.60
2022-12-16T10:41:13.328Z,66.30
2022-12-16T10:42:13.316Z,63.70
2022-12-16T10:43:13.329Z,64.70
2022-12-16T10:44:13.320Z,66.50
2022-12-16T10:45:13.284Z,64.40
2022-12-16T10:46:13.290Z,64.70
2022-12-16T10:47:13.264Z,64.50
2022-12-16T10:48:13.272Z,63.00
2022-12-16T10:49:13.301Z,63.50
2022-12-16T10:50:13.337Z,65.00
2022-12-16T10:51:13.220Z,62.40
2022-12-16T10:52:13.205Z,62.90
2022-12-16T10:53:13.223Z,62.60
2022-12-16T10:54:13.199Z,61.70
2022-12-16T10:55:13.170Z,62.50
2022-12-16T10:56:13.162Z,61.70
2022-12-16T10:57:13.149Z,62.50
2022-12-16T10:58:13.140Z,60.70
2022-12-16T10:59:13.188Z,61.70
2022-12-16T11:00:13.113Z,61.40
2022-12-16T11:01:13.146Z,60.30
2022-12-16T11:02:13.229Z,62.30
2022-12-16T11:03:13.294Z,60.60
2022-12-16T11:04:13.117Z,60.30
2022-12-16T11:05:13.274Z,58.80
2022-12-16T11:06:13.044Z,60.40
2022-12-16T11:07:13.038Z,59.40
2022-12-16T11:08:13.022Z,57.80
2022-12-16T11:09:13.013Z,58.60
2022-12-16T11:10:13.006Z,57.70
2022-12-16T11:11:13.013Z,57.80
2022-12-16T11:12:12.981Z,58.90
2022-12-16T11:13:12.966Z,55.50
2022-12-16T11:14:12.956Z,56.40
2022-12-16T11:15:28.771Z,57.80
2022-12-16T11:16:12.965Z,58.50
2022-12-16T11:17:12.958Z,58.80
2022-12-16T11:18:12.913Z,57.30
2022-12-16T11:19:12.912Z,59.00
2022-12-16T11:20:12.893Z,58.60
2022-12-16T11:21:15.814Z,58.50
2022-12-16T11:22:12.868Z,59.50
2022-12-16T11:23:12.879Z,58.80
2022-12-16T11:24:12.847Z,58.50
2022-12-16T11:25:12.833Z,60.50
2022-12-16T11:26:12.822Z,60.90
2022-12-16T11:27:12.822Z,59.00
2022-12-16T11:28:12.798Z,60.30
2022-12-16T11:29:12.819Z,59.10
2022-12-16T11:30:12.776Z,62.80
2022-12-16T11:31:12.857Z,56.90
2022-12-16T11:32:12.754Z,57.00
2022-12-16T11:33:12.749Z,57.40
2022-12-16T11:34:12.727Z,55.20
2022-12-16T11:35:12.754Z,56.60
2022-12-16T11:36:12.706Z,57.10
2022-12-16T11:37:15.600Z,57.10
2022-12-16T11:38:12.704Z,57.40
2022-12-16T11:39:12.694Z,56.60
2022-12-16T11:40:12.661Z,56.30
2022-12-16T11:41:12.687Z,55.70
2022-12-16T11:42:12.665Z,57.50
2022-12-16T11:43:16.925Z,57.10
2022-12-16T11:44:12.614Z,57.50
2022-12-16T11:45:12.657Z,56.70
2022-12-16T11:46:12.680Z,55.90
2022-12-16T11:47:12.605Z,55.70
2022-12-16T11:48:12.574Z,53.20
2022-12-16T11:49:12.564Z,53.90
2022-12-16T11:50:12.549Z,53.60
2022-12-16T11:51:12.553Z,53.50
2022-12-16T11:52:35.309Z,53.90
2022-12-16T11:53:12.525Z,52.50
2022-12-16T11:54:12.501Z,51.60
2022-12-16T11:55:12.520Z,52.70
2022-12-16T11:56:16.062Z,54.10
2022-12-16T11:57:12.479Z,50.90
2022-12-16T11:58:12.491Z,52.20
2022-12-16T11:59:12.457Z,51.50
2022-12-16T12:00:12.437Z,53.50
2022-12-16T12:01:12.428Z,53.80
2022-12-16T12:02:12.497Z,53.70
2022-12-16T12:03:12.662Z,56.00
2022-12-16T12:04:12.547Z,52.70
2022-12-16T12:05:12.382Z,53.00
2022-12-16T12:06:12.367Z,54.00
2022-12-16T12:07:12.359Z,56.10
2022-12-16T12:08:12.346Z,55.10
2022-12-16T12:09:12.341Z,53.80
2022-12-16T12:10:12.549Z,53.30
2022-12-16T12:11:12.309Z,53.80
2022-12-16T12:12:12.349Z,54.30
2022-12-16T12:13:12.288Z,51.50
2022-12-16T12:14:12.283Z,50.70
2022-12-16T12:15:12.265Z,50.10
2022-12-16T12:16:12.327Z,49.30
2022-12-16T12:17:12.246Z,47.70
2022-12-16T12:18:12.240Z,48.10
2022-12-16T12:19:12.244Z,48.90
2022-12-16T12:20:12.216Z,47.50
2022-12-16T12:21:12.207Z,48.30
2022-12-16T12:22:12.191Z,48.70
2022-12-16T12:23:12.188Z,48.90
2022-12-16T12:24:12.207Z,49.10
2022-12-16T12:25:12.154Z,47.40
2022-12-16T12:26:12.146Z,47.90
2022-12-16T12:27:12.140Z,49.50
2022-12-16T12:28:12.124Z,50.30
2022-12-16T12:29:12.130Z,50.90
2022-12-16T12:30:16.337Z,50.70
2022-12-16T12:31:12.157Z,49.80
2022-12-16T12:32:12.079Z,49.40
2022-12-16T12:33:12.064Z,52.10
2022-12-16T12:34:12.082Z,48.60
2022-12-16T12:35:12.039Z,47.30
2022-12-16T12:36:12.034Z,48.80
2022-12-16T12:37:12.019Z,49.10
2022-12-16T12:38:12.013Z,49.40
2022-12-16T12:39:12.022Z,48.50
2022-12-16T12:40:11.991Z,48.20
2022-12-16T12:41:11.994Z,48.40
2022-12-16T12:42:11.970Z,49.70
2022-12-16T12:43:11.951Z,49.40
2022-12-16T12:44:11.977Z,48.50
2022-12-16T12:45:11.933Z,45.70
2022-12-16T12:46:11.981Z,46.40
2022-12-16T12:47:11.952Z,44.30
2022-12-16T12:48:11.902Z,45.50
2022-12-16T12:49:11.910Z,45.60
2022-12-16T12:50:11.878Z,47.30
2022-12-16T12:51:11.863Z,45.90
2022-12-16T12:52:11.858Z,44.00
2022-12-16T12:53:11.846Z,44.40
2022-12-16T12:54:11.857Z,45.60